createdAt,value
2022-08-18T09:39:40.942Z,8.57
2022-08-18T09:42:18.927Z,8.88
2022-08-18T10:12:19.418Z,6.18
2022-08-18T10:15:06.382Z,5.28
2022-08-18T10:28:11.856Z,4.80
2022-08-18T10:30:57.455Z,4.60
2022-08-18T10:33:45.235Z,4.63
2022-08-18T10:36:32.230Z,5.35
2022-08-18T10:38:59.417Z,4.72
2022-08-18T10:41:30.963Z,5.00
2022-08-18T11:16:13.468Z,4.50
2022-08-18T11:18:43.144Z,5.00
2022-08-18T11:21:28.991Z,4.93
2022-08-18T11:24:08.289Z,5.85
2022-08-18T11:26:41.876Z,5.70
2022-08-18T11:41:02.321Z,5.15
2022-08-18T11:43:10.956Z,4.93
2022-08-18T11:45:44.128Z,5.55
2022-08-18T11:48:13.736Z,4.90
2022-08-18T11:50:54.658Z,5.13
2022-08-18T11:53:35.785Z,5.53
2022-08-18T11:56:13.546Z,5.78
2022-08-18T11:58:52.368Z,5.55
2022-08-18T12:12:54.191Z,5.07
2022-08-18T12:15:29.617Z,4.97
2022-08-18T12:18:11.389Z,5.30
2022-08-18T12:20:53.387Z,4.97
2022-08-18T12:23:20.327Z,5.28
2022-08-18T12:25:48.252Z,5.18
2022-08-18T12:28:19.783Z,5.10
2022-08-18T12:30:56.191Z,5.25
2022-08-18T12:33:25.534Z,5.47
2022-08-18T12:36:01.400Z,5.03
2022-08-18T12:38:32.322Z,5.40
2022-08-18T12:41:03.734Z,5.13
2022-08-18T12:43:32.301Z,4.88
2022-08-18T12:46:00.294Z,4.97
2022-08-18T12:48:28.945Z,5.35
2022-08-18T12:50:58.597Z,5.20
2022-08-18T12:53:30.475Z,5.32
2022-08-18T12:56:30.305Z,4.90
2022-08-18T12:58:59.728Z,5.00
2022-08-18T13:01:27.518Z,4.53
2022-08-18T13:04:10.895Z,5.35
2022-08-18T13:06:45.387Z,5.13
2022-08-18T13:09:35.044Z,6.45
2022-08-18T13:12:16.031Z,5.85
2022-08-18T13:14:43.775Z,5.43
2022-08-18T13:22:23.723Z,6.35
2022-08-18T13:24:59.519Z,6.22
2022-08-18T13:27:27.213Z,5.95
2022-08-18T13:30:00.174Z,5.40
2022-08-18T13:32:29.876Z,5.60
2022-08-18T14:20:52.080Z,5.63
2022-08-18T14:23:37.735Z,6.63
2022-08-18T14:26:29.372Z,5.60
2022-08-18T14:28:56.178Z,6.00
2022-08-18T14:31:23.260Z,5.95
2022-08-18T14:33:54.169Z,6.00
2022-08-18T14:36:30.182Z,5.43
